createdAt,value
2023-02-16T00:00:40.638Z,73.72
2023-02-16T00:05:42.405Z,73.77
2023-02-16T00:11:04.989Z,74.06
2023-02-16T00:16:17.036Z,73.97
2023-02-16T00:21:19.300Z,74.02
2023-02-16T00:26:24.070Z,74.06
2023-02-16T00:31:29.233Z,74.08
2023-02-16T00:36:31.291Z,73.95
2023-02-16T00:41:51.200Z,74.15
2023-02-16T00:46:53.433Z,74.15
2023-02-16T00:51:55.348Z,74.06
2023-02-16T00:56:57.869Z,74.18
2023-02-16T01:01:59.721Z,74.07
2023-02-16T01:07:20.390Z,74.13
2023-02-16T01:12:22.843Z,74.18
2023-02-16T01:17:25.088Z,74.26
2023-02-16T01:22:33.958Z,74.20
2023-02-16T01:27:41.257Z,74.37
2023-02-16T01:32:43.194Z,74.36
2023-02-16T01:37:45.022Z,74.27
2023-02-16T01:42:58.224Z,74.53
2023-02-16T01:48:06.124Z,74.51
2023-02-16T01:53:28.803Z,74.40
2023-02-16T01:58:44.732Z,74.36
2023-02-16T02:04:05.375Z,74.32
2023-02-16T02:09:34.138Z,74.38
2023-02-16T02:14:39.688Z,74.35
2023-02-16T02:20:14.513Z,74.24
2023-02-16T02:25:22.399Z,74.30
2023-02-16T02:31:10.735Z,74.38
2023-02-16T02:36:28.404Z,74.43
2023-02-16T02:41:57.454Z,74.42
2023-02-16T02:47:01.349Z,74.40
2023-02-16T02:52:03.897Z,74.34
2023-02-16T02:57:43.849Z,74.33
2023-02-16T03:02:49.917Z,74.38
2023-02-16T03:07:57.607Z,74.61
2023-02-16T03:13:02.028Z,74.55
2023-02-16T03:18:23.847Z,74.68
2023-02-16T03:23:44.198Z,74.51
2023-02-16T03:29:07.987Z,74.64
2023-02-16T03:34:10.150Z,74.47
2023-02-16T03:39:13.211Z,74.63
2023-02-16T03:44:15.619Z,74.53
2023-02-16T03:49:20.704Z,74.70
2023-02-16T03:54:22.586Z,74.67
2023-02-16T03:59:24.505Z,74.57
2023-02-16T04:04:26.793Z,74.71
2023-02-16T04:09:28.762Z,74.56
2023-02-16T04:14:30.613Z,74.70
2023-02-16T04:19:32.368Z,74.69
2023-02-16T04:24:34.194Z,74.72
2023-02-16T04:29:38.850Z,74.83
2023-02-16T04:34:40.892Z,74.84
2023-02-16T04:39:42.821Z,74.98
2023-02-16T04:44:44.783Z,74.77
2023-02-16T04:49:48.094Z,74.81
2023-02-16T04:54:51.750Z,74.91
2023-02-16T04:59:53.559Z,74.81
2023-02-16T05:04:55.314Z,74.86
2023-02-16T05:09:57.768Z,74.81
2023-02-16T05:14:59.523Z,74.71
2023-02-16T05:20:02.017Z,74.92
2023-02-16T05:25:04.185Z,74.94
2023-02-16T05:30:06.596Z,75.10
2023-02-16T05:35:08.476Z,75.12
2023-02-16T05:40:10.922Z,75.07
2023-02-16T05:45:12.897Z,75.13
2023-02-16T05:50:14.992Z,75.17
2023-02-16T05:55:16.934Z,75.29
2023-02-16T06:00:18.995Z,75.52
2023-02-16T06:05:20.897Z,75.83
2023-02-16T06:10:27.141Z,75.68
2023-02-16T06:15:31.845Z,75.77
2023-02-16T06:20:33.944Z,75.86
2023-02-16T06:25:36.302Z,75.93
2023-02-16T06:30:38.372Z,76.23
2023-02-16T06:35:40.175Z,76.01
2023-02-16T06:40:42.025Z,76.20
2023-02-16T06:45:43.913Z,76.50
2023-02-16T06:50:45.932Z,76.25
2023-02-16T06:55:50.922Z,76.69
2023-02-16T07:00:55.502Z,76.86
2023-02-16T07:05:57.301Z,76.98
2023-02-16T07:10:59.169Z,76.99
2023-02-16T07:16:01.107Z,76.89
2023-02-16T07:21:03.267Z,77.06
2023-02-16T07:26:05.419Z,76.98
2023-02-16T07:31:10.215Z,77.07
2023-02-16T07:36:13.479Z,77.02
2023-02-16T07:41:17.409Z,77.39
2023-02-16T07:46:19.217Z,77.36
2023-02-16T07:51:29.242Z,77.62
2023-02-16T07:56:35.673Z,77.46
2023-02-16T08:01:37.864Z,77.33
2023-02-16T08:06:40.333Z,77.38
2023-02-16T08:11:42.277Z,77.80
2023-02-16T08:16:44.267Z,77.77
2023-02-16T08:21:49.532Z,77.63
2023-02-16T08:26:53.859Z,77.65
2023-02-16T08:31:56.931Z,77.70
2023-02-16T08:36:58.909Z,77.83
2023-02-16T08:42:01.990Z,77.90
2023-02-16T08:47:04.114Z,78.06
2023-02-16T08:52:06.359Z,77.94
2023-02-16T08:57:08.661Z,77.38
2023-02-16T09:02:11.558Z,77.54
2023-02-16T09:07:13.888Z,77.44
2023-02-16T09:12:15.817Z,77.67
2023-02-16T09:17:17.642Z,77.41
2023-02-16T09:22:19.648Z,77.44
2023-02-16T09:27:21.514Z,77.47
2023-02-16T09:32:28.054Z,77.25
2023-02-16T09:37:29.903Z,76.60
2023-02-16T09:42:50.635Z,76.26
2023-02-16T09:47:55.206Z,76.04
2023-02-16T09:53:11.722Z,76.13
2023-02-16T09:58:22.207Z,75.69
2023-02-16T10:03:45.955Z,75.51
2023-02-16T10:08:50.362Z,75.53
2023-02-16T10:13:57.440Z,75.43
2023-02-16T10:19:04.236Z,74.66
2023-02-16T10:24:07.741Z,74.44
2023-02-16T10:29:20.013Z,74.31
2023-02-16T10:34:46.478Z,74.22
2023-02-16T10:40:12.860Z,72.09
2023-02-16T10:45:15.941Z,70.47
2023-02-16T10:50:53.787Z,70.00
2023-02-16T10:55:57.017Z,70.59
2023-02-16T11:01:10.474Z,70.27
2023-02-16T11:06:19.219Z,70.26
2023-02-16T11:11:23.065Z,69.48
2023-02-16T11:16:25.894Z,68.61
2023-02-16T11:22:03.295Z,69.35
2023-02-16T11:27:07.022Z,69.51
2023-02-16T11:32:12.262Z,69.10
2023-02-16T11:37:24.472Z,69.39
2023-02-16T11:42:47.219Z,68.64
2023-02-16T11:47:55.815Z,69.05
2023-02-16T11:53:09.659Z,69.04
2023-02-16T11:58:26.117Z,69.24
2023-02-16T12:03:48.980Z,69.94
2023-02-16T12:09:07.075Z,69.12
2023-02-16T12:14:14.867Z,69.09
2023-02-16T12:19:28.290Z,69.30
2023-02-16T12:24:52.556Z,69.28
2023-02-16T12:30:38.884Z,69.23
2023-02-16T12:36:27.017Z,68.99
2023-02-16T12:41:53.638Z,68.12
2023-02-16T12:47:04.808Z,68.29
2023-02-16T12:52:11.532Z,67.87
2023-02-16T12:57:17.460Z,67.82
2023-02-16T13:02:28.724Z,67.40
2023-02-16T13:07:40.304Z,65.92
2023-02-16T13:13:01.084Z,65.08
2023-02-16T13:18:23.205Z,64.20
2023-02-16T13:23:37.042Z,65.22
2023-02-16T13:28:47.773Z,65.29
2023-02-16T13:34:14.745Z,65.62
2023-02-16T13:39:34.672Z,65.27
2023-02-16T13:44:46.153Z,64.94
2023-02-16T13:49:50.446Z,64.30
2023-02-16T13:54:52.570Z,64.81
2023-02-16T14:00:00.542Z,64.68
2023-02-16T14:05:04.220Z,64.38
2023-02-16T14:10:06.688Z,64.08
2023-02-16T14:15:20.625Z,61.62
2023-02-16T14:20:22.437Z,60.78
2023-02-16T14:25:24.272Z,61.26
2023-02-16T14:30:35.662Z,61.96
2023-02-16T14:35:41.512Z,62.40
2023-02-16T14:41:01.188Z,62.73
2023-02-16T14:46:11.044Z,63.31
2023-02-16T14:51:42.171Z,63.06
2023-02-16T14:56:54.319Z,63.12
2023-02-16T15:01:56.969Z,62.33
2023-02-16T15:07:05.228Z,62.71
2023-02-16T15:12:21.927Z,62.44
2023-02-16T15:17:31.887Z,62.99
2023-02-16T15:22:33.989Z,63.08
2023-02-16T15:27:35.783Z,63.02
2023-02-16T15:32:38.083Z,62.95
2023-02-16T15:37:40.641Z,63.32
2023-02-16T15:42:45.356Z,63.53
2023-02-16T15:47:47.222Z,63.85
2023-02-16T15:52:49.186Z,63.96
2023-02-16T15:57:51.289Z,64.30
2023-02-16T16:02:55.838Z,64.40
2023-02-16T16:07:59.514Z,64.48
2023-02-16T16:13:07.493Z,64.76
2023-02-16T16:18:29.346Z,64.71
2023-02-16T16:23:31.129Z,64.86
2023-02-16T16:28:36.698Z,64.84
2023-02-16T16:33:58.777Z,64.65
2023-02-16T16:39:17.096Z,64.64
2023-02-16T16:44:48.093Z,64.55
2023-02-16T16:49:56.395Z,64.12
2023-02-16T16:54:58.239Z,64.17
2023-02-16T17:00:00.007Z,64.01
2023-02-16T17:05:01.784Z,64.06
2023-02-16T17:10:05.309Z,63.50
2023-02-16T17:15:14.486Z,63.04
2023-02-16T17:20:16.947Z,62.56
2023-02-16T17:25:19.459Z,62.34
2023-02-16T17:30:24.604Z,62.39
2023-02-16T17:35:26.606Z,61.94
2023-02-16T17:40:28.487Z,62.17
2023-02-16T17:45:30.366Z,62.21
2023-02-16T17:50:33.159Z,61.84
2023-02-16T17:55:34.968Z,61.54
2023-02-16T18:00:38.240Z,61.83
2023-02-16T18:05:40.268Z,61.39
2023-02-16T18:10:45.219Z,61.61
2023-02-16T18:15:49.317Z,61.49
2023-02-16T18:20:51.226Z,61.40
2023-02-16T18:25:53.178Z,60.88
2023-02-16T18:30:55.150Z,59.91
2023-02-16T18:35:57.679Z,58.75
2023-02-16T18:40:59.626Z,58.37
2023-02-16T18:46:06.543Z,57.34
2023-02-16T18:51:10.027Z,57.18
2023-02-16T18:56:12.525Z,57.28
2023-02-16T19:01:22.732Z,57.76
2023-02-16T19:06:24.977Z,57.65
2023-02-16T19:11:28.893Z,58.08
2023-02-16T19:16:30.863Z,58.47
2023-02-16T19:21:33.137Z,58.93
2023-02-16T19:26:34.930Z,59.54
2023-02-16T19:31:37.207Z,60.22
2023-02-16T19:36:39.644Z,60.89
2023-02-16T19:41:46.240Z,61.65
2023-02-16T19:46:48.096Z,62.29
2023-02-16T19:51:50.613Z,62.82
2023-02-16T19:56:54.197Z,63.53
2023-02-16T20:01:56.011Z,64.13
2023-02-16T20:06:57.973Z,64.58
2023-02-16T20:12:00.021Z,65.07
2023-02-16T20:17:03.855Z,65.34
2023-02-16T20:22:05.708Z,65.73
2023-02-16T20:27:07.599Z,65.88
2023-02-16T20:32:09.508Z,66.22
2023-02-16T20:37:11.454Z,66.33
2023-02-16T20:42:13.506Z,66.49
2023-02-16T20:47:16.024Z,66.90
2023-02-16T20:52:18.005Z,66.87
2023-02-16T20:57:27.141Z,66.99
2023-02-16T21:02:29.481Z,66.99
2023-02-16T21:07:31.244Z,67.10
2023-02-16T21:12:32.999Z,67.17
2023-02-16T21:17:34.825Z,67.49
2023-02-16T21:22:36.708Z,67.62
2023-02-16T21:27:38.608Z,67.61
2023-02-16T21:32:40.373Z,67.83
2023-02-16T21:37:42.550Z,67.85
2023-02-16T21:42:44.605Z,67.92
2023-02-16T21:48:05.694Z,68.18
2023-02-16T21:53:09.268Z,68.15
2023-02-16T21:58:11.659Z,68.30
2023-02-16T22:03:14.356Z,68.20
2023-02-16T22:08:16.208Z,68.53
2023-02-16T22:13:17.993Z,68.62
2023-02-16T22:18:19.739Z,68.49
2023-02-16T22:23:21.558Z,68.67
2023-02-16T22:28:23.444Z,68.73
2023-02-16T22:33:25.357Z,68.51
2023-02-16T22:38:27.122Z,68.86
2023-02-16T22:43:28.845Z,68.91
2023-02-16T22:48:30.616Z,69.03
2023-02-16T22:53:33.085Z,69.02
2023-02-16T22:58:36.116Z,69.22
2023-02-16T23:03:37.982Z,69.14
2023-02-16T23:08:39.696Z,69.38
2023-02-16T23:13:41.478Z,69.41
2023-02-16T23:18:44.644Z,69.54
2023-02-16T23:23:47.479Z,69.73
2023-02-16T23:28:54.769Z,69.77
2023-02-16T23:33:57.169Z,69.77
2023-02-16T23:39:06.849Z,70.01
2023-02-16T23:44:12.131Z,69.85
2023-02-16T23:49:14.150Z,70.02
2023-02-16T23:54:15.887Z,69.93
2023-02-16T23:59:17.617Z,70.12
